sensor_id;sensor_type;location;lat;lon;timestamp;temperature;humidity
59977;DHT22;45837;51.076;3.578;2023-09-19T00:02:17;23.80;54.10
59977;DHT22;45837;51.076;3.578;2023-09-19T00:04:43;23.80;53.50
59977;DHT22;45837;51.076;3.578;2023-09-19T00:07:09;23.70;53.40
59977;DHT22;45837;51.076;3.578;2023-09-19T00:09:34;23.30;53.50
59977;DHT22;45837;51.076;3.578;2023-09-19T00:12:06;23.80;53.70
59977;DHT22;45837;51.076;3.578;2023-09-19T00:14:32;23.80;52.90
59977;DHT22;45837;51.076;3.578;2023-09-19T00:17:01;23.80;53.00
59977;DHT22;45837;51.076;3.578;2023-09-19T00:19:32;23.70;53.00
59977;DHT22;45837;51.076;3.578;2023-09-19T00:21:58;23.70;53.70
59977;DHT22;45837;51.076;3.578;2023-09-19T00:24:24;23.70;53.80
59977;DHT22;45837;51.076;3.578;2023-09-19T00:26:49;23.70;53.30
59977;DHT22;45837;51.076;3.578;2023-09-19T00:29:15;23.70;53.80
59977;DHT22;45837;51.076;3.578;2023-09-19T00:31:44;23.70;53.00
59977;DHT22;45837;51.076;3.578;2023-09-19T00:34:10;23.70;52.70
59977;DHT22;45837;51.076;3.578;2023-09-19T00:36:36;23.70;53.70
59977;DHT22;45837;51.076;3.578;2023-09-19T00:39:05;23.70;52.80
59977;DHT22;45837;51.076;3.578;2023-09-19T00:41:34;23.70;53.10
59977;DHT22;45837;51.076;3.578;2023-09-19T00:44:03;23.70;52.60
59977;DHT22;45837;51.076;3.578;2023-09-19T00:46:30;23.70;53.00
59977;DHT22;45837;51.076;3.578;2023-09-19T00:48:57;23.70;52.90
59977;DHT22;45837;51.076;3.578;2023-09-19T00:51:24;22.70;52.70
59977;DHT22;45837;51.076;3.578;2023-09-19T00:53:53;23.70;53.20
59977;DHT22;45837;51.076;3.578;2023-09-19T00:56:19;22.00;51.90
59977;DHT22;45837;51.076;3.578;2023-09-19T00:58:46;23.60;53.10
59977;DHT22;45837;51.076;3.578;2023-09-19T01:01:13;23.60;52.80
59977;DHT22;45837;51.076;3.578;2023-09-19T01:03:40;24.70;53.60
59977;DHT22;45837;51.076;3.578;2023-09-19T01:06:06;23.60;52.80
59977;DHT22;45837;51.076;3.578;2023-09-19T01:08:33;23.60;53.50
59977;DHT22;45837;51.076;3.578;2023-09-19T01:21:49;21.50;51.60
59977;DHT22;45837;51.076;3.578;2023-09-19T01:27:01;23.60;52.70
59977;DHT22;45837;51.076;3.578;2023-09-19T01:29:38;23.60;52.80
59977;DHT22;45837;51.076;3.578;2023-09-19T01:32:05;23.60;52.60
59977;DHT22;45837;51.076;3.578;2023-09-19T01:34:47;23.60;53.00
59977;DHT22;45837;51.076;3.578;2023-09-19T01:37:14;23.60;52.70
59977;DHT22;45837;51.076;3.578;2023-09-19T01:39:46;23.60;52.80
59977;DHT22;45837;51.076;3.578;2023-09-19T01:47:44;23.50;52.70
59977;DHT22;45837;51.076;3.578;2023-09-19T01:50:16;23.50;53.00
59977;DHT22;45837;51.076;3.578;2023-09-19T01:52:48;22.60;52.80
59977;DHT22;45837;51.076;3.578;2023-09-19T01:55:15;23.50;52.70
59977;DHT22;45837;51.076;3.578;2023-09-19T01:57:48;23.50;53.20
59977;DHT22;45837;51.076;3.578;2023-09-19T02:00:15;23.50;52.90
59977;DHT22;45837;51.076;3.578;2023-09-19T02:02:44;23.50;53.30
59977;DHT22;45837;51.076;3.578;2023-09-19T02:05:10;23.50;53.00
59977;DHT22;45837;51.076;3.578;2023-09-19T02:07:38;23.50;53.20
59977;DHT22;45837;51.076;3.578;2023-09-19T02:10:06;23.50;53.00
59977;DHT22;45837;51.076;3.578;2023-09-19T02:12:32;23.50;53.20
59977;DHT22;45837;51.076;3.578;2023-09-19T02:15:02;23.50;53.20
59977;DHT22;45837;51.076;3.578;2023-09-19T02:17:29;23.50;53.20
59977;DHT22;45837;51.076;3.578;2023-09-19T02:19:56;23.50;53.50
59977;DHT22;45837;51.076;3.578;2023-09-19T02:22:22;23.50;53.50
59977;DHT22;45837;51.076;3.578;2023-09-19T02:24:48;23.30;53.40
59977;DHT22;45837;51.076;3.578;2023-09-19T02:27:14;23.40;53.50
59977;DHT22;45837;51.076;3.578;2023-09-19T02:29:41;23.40;53.00
59977;DHT22;45837;51.076;3.578;2023-09-19T02:32:08;23.40;52.90
59977;DHT22;45837;51.076;3.578;2023-09-19T02:34:35;23.40;53.80
59977;DHT22;45837;51.076;3.578;2023-09-19T02:37:05;23.40;53.20
59977;DHT22;45837;51.076;3.578;2023-09-19T02:39:31;23.40;53.00
59977;DHT22;45837;51.076;3.578;2023-09-19T02:41:57;23.40;53.10
59977;DHT22;45837;51.076;3.578;2023-09-19T02:44:23;23.40;53.80
59977;DHT22;45837;51.076;3.578;2023-09-19T02:46:50;23.40;53.90
59977;DHT22;45837;51.076;3.578;2023-09-19T02:49:16;23.40;53.60
59977;DHT22;45837;51.076;3.578;2023-09-19T02:51:43;21.50;53.00
59977;DHT22;45837;51.076;3.578;2023-09-19T02:54:09;23.40;53.70
59977;DHT22;45837;51.076;3.578;2023-09-19T02:56:36;23.40;53.60
59977;DHT22;45837;51.076;3.578;2023-09-19T02:59:01;23.40;53.70
59977;DHT22;45837;51.076;3.578;2023-09-19T03:01:27;23.40;54.40
59977;DHT22;45837;51.076;3.578;2023-09-19T03:03:54;23.40;54.30
59977;DHT22;45837;51.076;3.578;2023-09-19T03:06:20;23.30;53.90
59977;DHT22;45837;51.076;3.578;2023-09-19T03:08:47;22.90;53.50
59977;DHT22;45837;51.076;3.578;2023-09-19T03:11:14;23.40;54.30
59977;DHT22;45837;51.076;3.578;2023-09-19T03:13:44;23.40;54.40
59977;DHT22;45837;51.076;3.578;2023-09-19T03:16:11;23.40;54.10
59977;DHT22;45837;51.076;3.578;2023-09-19T03:18:37;23.40;55.00
59977;DHT22;45837;51.076;3.578;2023-09-19T03:21:03;23.40;54.50
59977;DHT22;45837;51.076;3.578;2023-09-19T03:23:29;23.40;54.40
59977;DHT22;45837;51.076;3.578;2023-09-19T03:25:55;23.40;55.20
59977;DHT22;45837;51.076;3.578;2023-09-19T03:28:22;23.40;54.50
59977;DHT22;45837;51.076;3.578;2023-09-19T03:31:01;23.40;54.50
59977;DHT22;45837;51.076;3.578;2023-09-19T03:33:28;23.40;54.10
59977;DHT22;45837;51.076;3.578;2023-09-19T03:35:54;23.40;55.40
59977;DHT22;45837;51.076;3.578;2023-09-19T03:38:20;23.30;54.30
59977;DHT22;45837;51.076;3.578;2023-09-19T03:40:47;23.40;54.70
59977;DHT22;45837;51.076;3.578;2023-09-19T03:43:14;23.40;54.70
59977;DHT22;45837;51.076;3.578;2023-09-19T03:45:40;23.30;55.10
59977;DHT22;45837;51.076;3.578;2023-09-19T03:48:10;23.30;55.10
59977;DHT22;45837;51.076;3.578;2023-09-19T03:50:36;23.40;54.30
59977;DHT22;45837;51.076;3.578;2023-09-19T03:53:02;23.30;54.80
59977;DHT22;45837;51.076;3.578;2023-09-19T03:55:28;23.30;54.80
59977;DHT22;45837;51.076;3.578;2023-09-19T03:57:55;23.40;54.30
59977;DHT22;45837;51.076;3.578;2023-09-19T04:00:21;23.40;55.20
59977;DHT22;45837;51.076;3.578;2023-09-19T04:02:49;23.30;54.70
59977;DHT22;45837;51.076;3.578;2023-09-19T04:05:14;23.30;55.30
59977;DHT22;45837;51.076;3.578;2023-09-19T04:07:40;23.30;54.80
59977;DHT22;45837;51.076;3.578;2023-09-19T04:10:06;23.30;54.80
59977;DHT22;45837;51.076;3.578;2023-09-19T04:12:34;23.30;54.80
59977;DHT22;45837;51.076;3.578;2023-09-19T04:15:00;23.30;55.60
59977;DHT22;45837;51.076;3.578;2023-09-19T04:17:26;23.30;55.10
59977;DHT22;45837;51.076;3.578;2023-09-19T04:19:52;23.30;55.60
59977;DHT22;45837;51.076;3.578;2023-09-19T04:22:19;23.30;54.90
59977;DHT22;45837;51.076;3.578;2023-09-19T04:24:45;23.30;54.80
59977;DHT22;45837;51.076;3.578;2023-09-19T04:27:11;23.30;55.40
59977;DHT22;45837;51.076;3.578;2023-09-19T04:29:40;23.30;54.90
59977;DHT22;45837;51.076;3.578;2023-09-19T04:32:07;23.20;55.50
59977;DHT22;45837;51.076;3.578;2023-09-19T04:34:36;23.30;55.70
59977;DHT22;45837;51.076;3.578;2023-09-19T04:37:01;23.20;55.40
59977;DHT22;45837;51.076;3.578;2023-09-19T04:39:27;20.80;54.50
59977;DHT22;45837;51.076;3.578;2023-09-19T04:41:54;23.30;56.40
59977;DHT22;45837;51.076;3.578;2023-09-19T04:44:20;23.30;56.00
59977;DHT22;45837;51.076;3.578;2023-09-19T04:46:46;23.30;56.10
59977;DHT22;45837;51.076;3.578;2023-09-19T04:49:12;23.30;56.30
59977;DHT22;45837;51.076;3.578;2023-09-19T04:51:38;23.30;56.40
59977;DHT22;45837;51.076;3.578;2023-09-19T04:54:05;23.30;56.30
59977;DHT22;45837;51.076;3.578;2023-09-19T04:56:31;23.30;56.50
59977;DHT22;45837;51.076;3.578;2023-09-19T04:58:58;23.30;55.90
59977;DHT22;45837;51.076;3.578;2023-09-19T05:01:24;23.30;55.10
59977;DHT22;45837;51.076;3.578;2023-09-19T05:03:50;23.30;55.70
59977;DHT22;45837;51.076;3.578;2023-09-19T05:06:21;23.30;55.80
59977;DHT22;45837;51.076;3.578;2023-09-19T05:08:50;23.30;56.40
59977;DHT22;45837;51.076;3.578;2023-09-19T05:11:18;23.30;56.90
59977;DHT22;45837;51.076;3.578;2023-09-19T05:13:48;23.30;56.20
59977;DHT22;45837;51.076;3.578;2023-09-19T05:16:16;23.20;55.50
59977;DHT22;45837;51.076;3.578;2023-09-19T05:18:41;23.10;55.40
59977;DHT22;45837;51.076;3.578;2023-09-19T05:21:07;23.00;55.70
59977;DHT22;45837;51.076;3.578;2023-09-19T05:23:33;22.70;55.80
59977;DHT22;45837;51.076;3.578;2023-09-19T05:25:59;22.60;56.00
59977;DHT22;45837;51.076;3.578;2023-09-19T05:28:25;22.40;56.30
59977;DHT22;45837;51.076;3.578;2023-09-19T05:30:52;22.30;56.20
59977;DHT22;45837;51.076;3.578;2023-09-19T05:33:18;22.10;57.00
59977;DHT22;45837;51.076;3.578;2023-09-19T05:35:44;22.00;56.60
59977;DHT22;45837;51.076;3.578;2023-09-19T05:38:12;21.90;56.60
59977;DHT22;45837;51.076;3.578;2023-09-19T05:40:39;21.90;57.00
59977;DHT22;45837;51.076;3.578;2023-09-19T05:43:07;21.80;56.90
59977;DHT22;45837;51.076;3.578;2023-09-19T05:45:33;21.80;57.20
59977;DHT22;45837;51.076;3.578;2023-09-19T05:48:07;21.70;57.30
59977;DHT22;45837;51.076;3.578;2023-09-19T05:50:33;21.60;57.30
59977;DHT22;45837;51.076;3.578;2023-09-19T05:52:59;21.50;57.50
59977;DHT22;45837;51.076;3.578;2023-09-19T05:55:25;21.50;58.00
59977;DHT22;45837;51.076;3.578;2023-09-19T05:57:51;21.50;57.30
59977;DHT22;45837;51.076;3.578;2023-09-19T06:00:18;21.50;57.60
59977;DHT22;45837;51.076;3.578;2023-09-19T06:02:51;21.40;57.40
59977;DHT22;45837;51.076;3.578;2023-09-19T06:05:17;21.30;57.60
59977;DHT22;45837;51.076;3.578;2023-09-19T06:07:43;20.70;58.50
59977;DHT22;45837;51.076;3.578;2023-09-19T06:10:09;21.30;58.00
59977;DHT22;45837;51.076;3.578;2023-09-19T06:12:41;21.30;57.90
59977;DHT22;45837;51.076;3.578;2023-09-19T06:15:10;21.30;57.80
59977;DHT22;45837;51.076;3.578;2023-09-19T06:17:46;21.20;58.00
59977;DHT22;45837;51.076;3.578;2023-09-19T06:20:12;21.20;58.60
59977;DHT22;45837;51.076;3.578;2023-09-19T06:22:42;21.20;58.40
59977;DHT22;45837;51.076;3.578;2023-09-19T06:25:11;21.20;58.30
59977;DHT22;45837;51.076;3.578;2023-09-19T06:27:40;21.20;58.20
59977;DHT22;45837;51.076;3.578;2023-09-19T06:30:10;21.20;58.10
59977;DHT22;45837;51.076;3.578;2023-09-19T06:32:37;21.20;58.30
59977;DHT22;45837;51.076;3.578;2023-09-19T06:35:03;21.20;58.30
59977;DHT22;45837;51.076;3.578;2023-09-19T06:37:28;21.20;58.30
59977;DHT22;45837;51.076;3.578;2023-09-19T06:39:54;21.20;58.80
59977;DHT22;45837;51.076;3.578;2023-09-19T06:42:20;21.20;58.40
59977;DHT22;45837;51.076;3.578;2023-09-19T06:44:48;21.30;58.30
59977;DHT22;45837;51.076;3.578;2023-09-19T06:47:14;21.20;58.70
59977;DHT22;45837;51.076;3.578;2023-09-19T06:49:41;21.20;58.50
59977;DHT22;45837;51.076;3.578;2023-09-19T06:52:09;21.20;58.60
59977;DHT22;45837;51.076;3.578;2023-09-19T06:54:35;21.20;58.50
59977;DHT22;45837;51.076;3.578;2023-09-19T06:57:01;21.20;58.70
59977;DHT22;45837;51.076;3.578;2023-09-19T06:59:27;21.30;58.90
59977;DHT22;45837;51.076;3.578;2023-09-19T07:01:52;21.20;59.40
59977;DHT22;45837;51.076;3.578;2023-09-19T07:04:18;21.30;58.80
59977;DHT22;45837;51.076;3.578;2023-09-19T07:06:51;21.30;58.60
59977;DHT22;45837;51.076;3.578;2023-09-19T07:09:17;21.20;58.40
59977;DHT22;45837;51.076;3.578;2023-09-19T07:11:45;21.30;58.50
59977;DHT22;45837;51.076;3.578;2023-09-19T07:14:11;21.30;58.80
59977;DHT22;45837;51.076;3.578;2023-09-19T07:16:37;21.30;58.40
59977;DHT22;45837;51.076;3.578;2023-09-19T07:19:04;21.30;58.40
59977;DHT22;45837;51.076;3.578;2023-09-19T07:21:30;21.30;58.60
59977;DHT22;45837;51.076;3.578;2023-09-19T07:23:56;21.40;58.50
59977;DHT22;45837;51.076;3.578;2023-09-19T07:26:22;20.60;58.60
59977;DHT22;45837;51.076;3.578;2023-09-19T07:28:47;21.50;58.50
59977;DHT22;45837;51.076;3.578;2023-09-19T07:31:13;21.50;58.90
59977;DHT22;45837;51.076;3.578;2023-09-19T07:33:39;21.50;58.20
59977;DHT22;45837;51.076;3.578;2023-09-19T07:36:05;21.50;58.20
59977;DHT22;45837;51.076;3.578;2023-09-19T07:38:31;21.50;58.30
59977;DHT22;45837;51.076;3.578;2023-09-19T07:41:00;21.60;58.00
59977;DHT22;45837;51.076;3.578;2023-09-19T07:43:27;21.70;58.40
59977;DHT22;45837;51.076;3.578;2023-09-19T07:45:53;21.70;58.70
59977;DHT22;45837;51.076;3.578;2023-09-19T07:48:19;21.70;57.90
59977;DHT22;45837;51.076;3.578;2023-09-19T07:50:45;21.80;57.80
59977;DHT22;45837;51.076;3.578;2023-09-19T07:53:11;21.80;58.40
59977;DHT22;45837;51.076;3.578;2023-09-19T07:55:39;21.80;57.90
59977;DHT22;45837;51.076;3.578;2023-09-19T07:58:06;21.80;57.50
59977;DHT22;45837;51.076;3.578;2023-09-19T08:00:32;21.80;57.50
59977;DHT22;45837;51.076;3.578;2023-09-19T08:03:00;21.90;57.50
59977;DHT22;45837;51.076;3.578;2023-09-19T08:05:26;21.90;57.40
59977;DHT22;45837;51.076;3.578;2023-09-19T08:07:52;21.90;57.50
59977;DHT22;45837;51.076;3.578;2023-09-19T08:10:18;22.00;57.40
59977;DHT22;45837;51.076;3.578;2023-09-19T08:12:45;22.00;58.00
59977;DHT22;45837;51.076;3.578;2023-09-19T08:15:12;22.00;57.30
59977;DHT22;45837;51.076;3.578;2023-09-19T08:17:38;22.00;57.10
59977;DHT22;45837;51.076;3.578;2023-09-19T08:20:04;22.00;57.40
59977;DHT22;45837;51.076;3.578;2023-09-19T08:22:30;22.00;57.40
59977;DHT22;45837;51.076;3.578;2023-09-19T08:24:56;22.10;57.40
59977;DHT22;45837;51.076;3.578;2023-09-19T08:27:22;22.10;57.70
59977;DHT22;45837;51.076;3.578;2023-09-19T08:29:52;22.10;57.30
59977;DHT22;45837;51.076;3.578;2023-09-19T08:32:18;22.20;57.10
59977;DHT22;45837;51.076;3.578;2023-09-19T08:34:49;22.20;57.10
59977;DHT22;45837;51.076;3.578;2023-09-19T08:37:15;22.30;57.20
59977;DHT22;45837;51.076;3.578;2023-09-19T08:39:41;22.30;56.50
59977;DHT22;45837;51.076;3.578;2023-09-19T08:42:06;22.30;57.80
59977;DHT22;45837;51.076;3.578;2023-09-19T08:44:36;22.40;56.60
59977;DHT22;45837;51.076;3.578;2023-09-19T08:47:08;22.30;56.30
59977;DHT22;45837;51.076;3.578;2023-09-19T08:52:22;22.30;56.10
59977;DHT22;45837;51.076;3.578;2023-09-19T08:54:51;22.40;56.10
59977;DHT22;45837;51.076;3.578;2023-09-19T08:57:18;22.40;56.40
59977;DHT22;45837;51.076;3.578;2023-09-19T08:59:47;22.50;56.00
59977;DHT22;45837;51.076;3.578;2023-09-19T09:02:14;22.50;55.80
59977;DHT22;45837;51.076;3.578;2023-09-19T09:04:40;22.50;55.90
59977;DHT22;45837;51.076;3.578;2023-09-19T09:07:12;22.60;55.70
59977;DHT22;45837;51.076;3.578;2023-09-19T09:09:38;22.60;55.60
59977;DHT22;45837;51.076;3.578;2023-09-19T09:12:13;22.60;55.50
59977;DHT22;45837;51.076;3.578;2023-09-19T09:14:44;22.60;55.40
59977;DHT22;45837;51.076;3.578;2023-09-19T09:17:10;22.60;55.30
59977;DHT22;45837;51.076;3.578;2023-09-19T09:19:36;22.60;55.80
59977;DHT22;45837;51.076;3.578;2023-09-19T09:22:06;22.60;55.60
59977;DHT22;45837;51.076;3.578;2023-09-19T09:24:32;22.60;55.00
59977;DHT22;45837;51.076;3.578;2023-09-19T09:27:03;22.60;55.70
59977;DHT22;45837;51.076;3.578;2023-09-19T09:29:43;22.60;55.20
59977;DHT22;45837;51.076;3.578;2023-09-19T09:32:19;22.60;55.30
59977;DHT22;45837;51.076;3.578;2023-09-19T09:34:48;22.70;55.40
59977;DHT22;45837;51.076;3.578;2023-09-19T09:37:15;22.80;55.30
59977;DHT22;45837;51.076;3.578;2023-09-19T09:39:48;22.80;55.30
59977;DHT22;45837;51.076;3.578;2023-09-19T09:42:32;22.90;55.30
59977;DHT22;45837;51.076;3.578;2023-09-19T09:47:42;22.90;54.80
59977;DHT22;45837;51.076;3.578;2023-09-19T09:53:05;23.00;54.90
59977;DHT22;45837;51.076;3.578;2023-09-19T09:58:19;23.10;54.70
59977;DHT22;45837;51.076;3.578;2023-09-19T10:00:52;23.10;55.00
59977;DHT22;45837;51.076;3.578;2023-09-19T10:03:38;23.10;54.50
59977;DHT22;45837;51.076;3.578;2023-09-19T10:06:13;23.10;54.50
59977;DHT22;45837;51.076;3.578;2023-09-19T10:08:58;23.10;54.60
59977;DHT22;45837;51.076;3.578;2023-09-19T10:11:46;23.20;54.50
59977;DHT22;45837;51.076;3.578;2023-09-19T10:14:16;23.20;54.30
59977;DHT22;45837;51.076;3.578;2023-09-19T10:16:48;23.20;54.50
59977;DHT22;45837;51.076;3.578;2023-09-19T10:19:21;23.30;54.40
59977;DHT22;45837;51.076;3.578;2023-09-19T10:21:50;23.30;54.40
59977;DHT22;45837;51.076;3.578;2023-09-19T10:24:16;23.30;54.40
59977;DHT22;45837;51.076;3.578;2023-09-19T10:26:43;23.30;54.40
59977;DHT22;45837;51.076;3.578;2023-09-19T10:29:10;23.30;54.50
59977;DHT22;45837;51.076;3.578;2023-09-19T10:31:39;23.30;54.30
59977;DHT22;45837;51.076;3.578;2023-09-19T10:34:06;23.40;54.10
59977;DHT22;45837;51.076;3.578;2023-09-19T10:36:35;23.40;54.10
59977;DHT22;45837;51.076;3.578;2023-09-19T10:39:02;23.40;54.20
59977;DHT22;45837;51.076;3.578;2023-09-19T10:41:30;23.40;54.30
59977;DHT22;45837;51.076;3.578;2023-09-19T10:44:02;23.50;54.20
59977;DHT22;45837;51.076;3.578;2023-09-19T10:46:28;23.50;54.20
59977;DHT22;45837;51.076;3.578;2023-09-19T10:48:54;23.50;54.60
59977;DHT22;45837;51.076;3.578;2023-09-19T10:51:24;23.50;54.40
59977;DHT22;45837;51.076;3.578;2023-09-19T10:53:54;23.50;54.30
59977;DHT22;45837;51.076;3.578;2023-09-19T10:56:25;23.50;54.00
59977;DHT22;45837;51.076;3.578;2023-09-19T10:59:08;23.60;54.10
59977;DHT22;45837;51.076;3.578;2023-09-19T11:01:42;23.50;53.90
59977;DHT22;45837;51.076;3.578;2023-09-19T11:07:10;23.50;53.90
59977;DHT22;45837;51.076;3.578;2023-09-19T11:14:51;23.60;53.80
59977;DHT22;45837;51.076;3.578;2023-09-19T11:30:47;23.60;54.30
59977;DHT22;45837;51.076;3.578;2023-09-19T11:36:04;23.60;53.80
59977;DHT22;45837;51.076;3.578;2023-09-19T11:43:54;23.50;54.00
59977;DHT22;45837;51.076;3.578;2023-09-19T11:49:29;23.60;54.20
59977;DHT22;45837;51.076;3.578;2023-09-19T11:51:55;23.60;54.30
59977;DHT22;45837;51.076;3.578;2023-09-19T11:54:21;23.60;54.40
59977;DHT22;45837;51.076;3.578;2023-09-19T11:56:48;23.60;54.40
59977;DHT22;45837;51.076;3.578;2023-09-19T11:59:23;23.60;54.40
59977;DHT22;45837;51.076;3.578;2023-09-19T12:01:52;23.70;54.30
59977;DHT22;45837;51.076;3.578;2023-09-19T12:04:37;23.40;54.10
59977;DHT22;45837;51.076;3.578;2023-09-19T12:07:04;23.70;54.30
59977;DHT22;45837;51.076;3.578;2023-09-19T12:09:31;23.70;54.30
59977;DHT22;45837;51.076;3.578;2023-09-19T12:11:57;23.60;54.30
59977;DHT22;45837;51.076;3.578;2023-09-19T12:14:23;23.70;54.70
59977;DHT22;45837;51.076;3.578;2023-09-19T12:16:52;23.60;54.20
59977;DHT22;45837;51.076;3.578;2023-09-19T12:19:21;23.70;54.40
59977;DHT22;45837;51.076;3.578;2023-09-19T12:22:00;23.60;54.40
59977;DHT22;45837;51.076;3.578;2023-09-19T12:24:34;23.60;54.30
59977;DHT22;45837;51.076;3.578;2023-09-19T12:27:04;23.60;54.70
59977;DHT22;45837;51.076;3.578;2023-09-19T12:29:31;23.60;54.40
59977;DHT22;45837;51.076;3.578;2023-09-19T12:31:58;23.60;54.20
59977;DHT22;45837;51.076;3.578;2023-09-19T12:34:25;23.60;54.40
59977;DHT22;45837;51.076;3.578;2023-09-19T12:37:04;23.60;54.10
59977;DHT22;45837;51.076;3.578;2023-09-19T12:39:37;23.60;54.80
59977;DHT22;45837;51.076;3.578;2023-09-19T12:42:02;23.60;54.10
59977;DHT22;45837;51.076;3.578;2023-09-19T12:44:29;23.50;54.60
59977;DHT22;45837;51.076;3.578;2023-09-19T12:46:55;23.50;54.50
59977;DHT22;45837;51.076;3.578;2023-09-19T12:49:23;23.50;54.20
59977;DHT22;45837;51.076;3.578;2023-09-19T12:51:49;23.50;54.40
59977;DHT22;45837;51.076;3.578;2023-09-19T12:54:15;23.50;54.40
59977;DHT22;45837;51.076;3.578;2023-09-19T12:56:44;23.50;54.20
59977;DHT22;45837;51.076;3.578;2023-09-19T12:59:12;23.50;54.60
59977;DHT22;45837;51.076;3.578;2023-09-19T13:01:42;23.50;54.40
59977;DHT22;45837;51.076;3.578;2023-09-19T13:04:19;23.50;54.40
59977;DHT22;45837;51.076;3.578;2023-09-19T13:06:51;23.50;54.10
59977;DHT22;45837;51.076;3.578;2023-09-19T13:09:18;23.50;54.40
59977;DHT22;45837;51.076;3.578;2023-09-19T13:11:45;23.50;54.30
59977;DHT22;45837;51.076;3.578;2023-09-19T13:14:26;23.50;53.90
59977;DHT22;45837;51.076;3.578;2023-09-19T13:19:42;23.50;54.20
59977;DHT22;45837;51.076;3.578;2023-09-19T13:24:58;23.50;54.20
59977;DHT22;45837;51.076;3.578;2023-09-19T13:27:24;23.50;54.60
59977;DHT22;45837;51.076;3.578;2023-09-19T13:29:50;23.50;54.50
59977;DHT22;45837;51.076;3.578;2023-09-19T13:32:15;23.40;54.90
59977;DHT22;45837;51.076;3.578;2023-09-19T13:34:41;23.40;54.30
59977;DHT22;45837;51.076;3.578;2023-09-19T13:37:07;23.40;54.50
59977;DHT22;45837;51.076;3.578;2023-09-19T13:39:32;23.40;54.70
59977;DHT22;45837;51.076;3.578;2023-09-19T13:41:58;23.40;54.80
59977;DHT22;45837;51.076;3.578;2023-09-19T13:44:24;23.40;54.40
59977;DHT22;45837;51.076;3.578;2023-09-19T13:46:49;23.40;54.70
59977;DHT22;45837;51.076;3.578;2023-09-19T13:49:16;23.30;54.50
59977;DHT22;45837;51.076;3.578;2023-09-19T13:51:43;23.30;54.50
59977;DHT22;45837;51.076;3.578;2023-09-19T13:54:09;23.30;54.60
59977;DHT22;45837;51.076;3.578;2023-09-19T13:56:37;23.30;54.90
59977;DHT22;45837;51.076;3.578;2023-09-19T13:59:02;23.30;54.40
59977;DHT22;45837;51.076;3.578;2023-09-19T14:01:28;23.20;54.70
59977;DHT22;45837;51.076;3.578;2023-09-19T14:03:54;23.20;55.20
59977;DHT22;45837;51.076;3.578;2023-09-19T14:06:21;23.20;54.70
59977;DHT22;45837;51.076;3.578;2023-09-19T14:08:47;23.20;55.10
59977;DHT22;45837;51.076;3.578;2023-09-19T14:11:13;23.20;54.70
59977;DHT22;45837;51.076;3.578;2023-09-19T14:13:39;23.20;54.70
59977;DHT22;45837;51.076;3.578;2023-09-19T14:16:08;23.20;54.40
59977;DHT22;45837;51.076;3.578;2023-09-19T14:18:36;23.10;54.40
59977;DHT22;45837;51.076;3.578;2023-09-19T14:21:03;23.00;55.00
59977;DHT22;45837;51.076;3.578;2023-09-19T14:23:33;23.00;54.80
59977;DHT22;45837;51.076;3.578;2023-09-19T14:26:00;23.00;54.90
59977;DHT22;45837;51.076;3.578;2023-09-19T14:28:26;23.00;54.80
59977;DHT22;45837;51.076;3.578;2023-09-19T14:30:52;22.90;55.70
59977;DHT22;45837;51.076;3.578;2023-09-19T14:33:18;22.80;56.30
59977;DHT22;45837;51.076;3.578;2023-09-19T14:35:44;22.90;55.40
59977;DHT22;45837;51.076;3.578;2023-09-19T14:38:10;22.90;55.90
59977;DHT22;45837;51.076;3.578;2023-09-19T14:40:35;22.90;55.60
59977;DHT22;45837;51.076;3.578;2023-09-19T14:43:02;22.90;55.70
59977;DHT22;45837;51.076;3.578;2023-09-19T14:45:28;22.90;55.50
59977;DHT22;45837;51.076;3.578;2023-09-19T14:47:56;22.90;55.70
59977;DHT22;45837;51.076;3.578;2023-09-19T14:50:22;22.80;56.20
59977;DHT22;45837;51.076;3.578;2023-09-19T14:52:49;22.90;55.70
59977;DHT22;45837;51.076;3.578;2023-09-19T14:55:17;22.80;55.40
59977;DHT22;45837;51.076;3.578;2023-09-19T14:57:48;22.80;55.80
59977;DHT22;45837;51.076;3.578;2023-09-19T15:00:14;22.80;55.60
59977;DHT22;45837;51.076;3.578;2023-09-19T15:02:39;22.80;55.90
59977;DHT22;45837;51.076;3.578;2023-09-19T15:05:10;22.80;55.80
59977;DHT22;45837;51.076;3.578;2023-09-19T15:07:36;22.80;56.00
59977;DHT22;45837;51.076;3.578;2023-09-19T15:10:04;22.80;55.60
59977;DHT22;45837;51.076;3.578;2023-09-19T15:12:32;22.80;56.20
59977;DHT22;45837;51.076;3.578;2023-09-19T15:14:58;22.80;55.70
59977;DHT22;45837;51.076;3.578;2023-09-19T15:17:24;22.80;56.30
59977;DHT22;45837;51.076;3.578;2023-09-19T15:19:50;22.80;55.80
59977;DHT22;45837;51.076;3.578;2023-09-19T15:22:17;22.80;55.90
59977;DHT22;45837;51.076;3.578;2023-09-19T15:24:42;22.70;56.30
59977;DHT22;45837;51.076;3.578;2023-09-19T15:27:08;22.70;56.40
59977;DHT22;45837;51.076;3.578;2023-09-19T15:29:34;22.60;56.40
59977;DHT22;45837;51.076;3.578;2023-09-19T15:32:00;22.60;56.80
59977;DHT22;45837;51.076;3.578;2023-09-19T15:34:28;22.60;56.40
59977;DHT22;45837;51.076;3.578;2023-09-19T15:36:54;22.60;56.40
59977;DHT22;45837;51.076;3.578;2023-09-19T15:39:20;22.50;56.70
59977;DHT22;45837;51.076;3.578;2023-09-19T15:41:48;22.60;56.60
59977;DHT22;45837;51.076;3.578;2023-09-19T15:44:19;22.60;57.20
59977;DHT22;45837;51.076;3.578;2023-09-19T15:46:45;22.60;56.50
59977;DHT22;45837;51.076;3.578;2023-09-19T15:49:11;22.70;57.20
59977;DHT22;45837;51.076;3.578;2023-09-19T15:51:37;22.80;57.00
59977;DHT22;45837;51.076;3.578;2023-09-19T15:54:07;22.90;56.80
59977;DHT22;45837;51.076;3.578;2023-09-19T15:56:32;23.00;56.70
59977;DHT22;45837;51.076;3.578;2023-09-19T15:59:00;23.00;56.80
59977;DHT22;45837;51.076;3.578;2023-09-19T16:01:26;23.10;57.10
59977;DHT22;45837;51.076;3.578;2023-09-19T16:03:52;23.10;57.20
59977;DHT22;45837;51.076;3.578;2023-09-19T16:06:19;23.10;57.10
59977;DHT22;45837;51.076;3.578;2023-09-19T16:08:46;23.20;57.00
59977;DHT22;45837;51.076;3.578;2023-09-19T16:11:12;23.20;57.10
59977;DHT22;45837;51.076;3.578;2023-09-19T16:13:38;23.20;58.30
59977;DHT22;45837;51.076;3.578;2023-09-19T16:16:09;23.20;57.50
59977;DHT22;45837;51.076;3.578;2023-09-19T16:18:38;23.30;57.60
59977;DHT22;45837;51.076;3.578;2023-09-19T16:21:05;23.20;57.50
59977;DHT22;45837;51.076;3.578;2023-09-19T16:23:31;23.30;57.60
59977;DHT22;45837;51.076;3.578;2023-09-19T16:26:04;23.30;58.50
59977;DHT22;45837;51.076;3.578;2023-09-19T16:28:30;23.30;57.80
59977;DHT22;45837;51.076;3.578;2023-09-19T16:31:03;23.30;57.80
59977;DHT22;45837;51.076;3.578;2023-09-19T16:33:31;23.40;57.90
59977;DHT22;45837;51.076;3.578;2023-09-19T16:35:57;23.40;58.20
59977;DHT22;45837;51.076;3.578;2023-09-19T16:38:24;23.40;58.40
59977;DHT22;45837;51.076;3.578;2023-09-19T16:40:57;23.30;58.40
59977;DHT22;45837;51.076;3.578;2023-09-19T16:43:26;23.30;58.30